createdAt,value
2023-03-28T00:01:02.190Z,1.30
2023-03-28T00:03:29.639Z,1.30
2023-03-28T00:05:58.499Z,1.30
2023-03-28T00:08:26.098Z,1.30
2023-03-28T00:10:52.688Z,1.30
2023-03-28T00:13:20.176Z,1.20
2023-03-28T00:15:47.476Z,1.20
2023-03-28T00:18:14.521Z,1.30
2023-03-28T00:20:43.744Z,1.30
2023-03-28T00:23:13.739Z,1.30
2023-03-28T00:25:42.046Z,1.30
2023-03-28T00:28:09.424Z,1.30
2023-03-28T00:30:36.187Z,1.20
2023-03-28T00:33:06.278Z,1.20
2023-03-28T00:35:33.949Z,1.10
2023-03-28T00:38:00.975Z,1.10
2023-03-28T00:40:28.069Z,1.00
2023-03-28T00:42:55.042Z,1.00
2023-03-28T00:45:22.738Z,1.00
2023-03-28T00:47:54.991Z,1.00
2023-03-28T00:50:22.112Z,1.00
2023-03-28T00:52:54.719Z,1.00
2023-03-28T00:55:30.206Z,1.00
2023-03-28T00:57:58.875Z,1.00
2023-03-28T01:00:26.358Z,1.00
2023-03-28T01:02:56.534Z,0.90
2023-03-28T01:05:25.799Z,0.90
2023-03-28T01:07:57.079Z,0.80
2023-03-28T01:10:23.998Z,0.70
2023-03-28T01:12:51.599Z,0.60
2023-03-28T01:15:18.335Z,0.60
2023-03-28T01:17:46.674Z,0.50
2023-03-28T01:20:26.895Z,0.50
2023-03-28T01:23:07.480Z,0.50
2023-03-28T01:25:54.045Z,0.50
2023-03-28T01:28:24.212Z,0.40
2023-03-28T01:31:03.093Z,0.40
2023-03-28T01:33:41.954Z,0.30
2023-03-28T01:36:34.016Z,0.30
2023-03-28T01:39:28.212Z,0.30
2023-03-28T01:41:55.144Z,0.30
2023-03-28T01:44:44.958Z,0.20
2023-03-28T01:47:26.651Z,0.20
2023-03-28T01:50:08.439Z,0.20
2023-03-28T01:52:38.616Z,0.10
2023-03-28T01:55:20.470Z,0.10
2023-03-28T01:57:47.554Z,0.00
2023-03-28T02:00:24.100Z,0.00
2023-03-28T02:02:57.054Z,0.00
2023-03-28T02:05:25.031Z,0.00
2023-03-28T02:07:52.143Z,0.00
2023-03-28T02:10:21.645Z,-0.10
2023-03-28T02:12:52.177Z,-0.10
2023-03-28T02:15:20.580Z,-0.10
2023-03-28T02:17:49.284Z,-0.20
2023-03-28T02:20:19.564Z,-0.20
2023-03-28T02:22:55.995Z,-0.20
2023-03-28T02:25:24.433Z,-0.20
2023-03-28T02:27:53.123Z,-0.30
2023-03-28T02:30:19.962Z,-0.20
2023-03-28T02:32:50.852Z,-0.20
2023-03-28T02:35:21.982Z,-0.30
2023-03-28T02:37:51.624Z,-0.30
2023-03-28T02:40:18.393Z,-0.20
2023-03-28T02:42:45.658Z,-0.20
2023-03-28T02:45:34.301Z,-0.20
2023-03-28T02:48:07.859Z,-0.20
2023-03-28T02:50:58.148Z,-0.20
2023-03-28T02:53:35.452Z,-0.20
2023-03-28T02:56:08.411Z,-0.20
2023-03-28T02:58:38.644Z,-0.10
2023-03-28T03:01:10.732Z,-0.10
2023-03-28T03:03:38.486Z,0.00
2023-03-28T03:06:07.972Z,0.00
2023-03-28T03:08:35.048Z,0.00
2023-03-28T03:11:01.760Z,0.00
2023-03-28T03:13:28.400Z,0.00
2023-03-28T03:15:56.393Z,0.00
2023-03-28T03:18:23.320Z,0.00
2023-03-28T03:20:50.492Z,0.00
2023-03-28T03:23:17.463Z,0.00
2023-03-28T03:25:45.078Z,0.00
2023-03-28T03:28:13.281Z,0.00
2023-03-28T03:30:39.978Z,0.00
2023-03-28T03:33:10.484Z,0.00
2023-03-28T03:35:37.910Z,0.00
2023-03-28T03:38:04.632Z,0.10
2023-03-28T03:40:31.641Z,0.10
2023-03-28T03:42:58.250Z,0.10
2023-03-28T03:45:25.112Z,0.20
2023-03-28T03:47:52.004Z,0.20
2023-03-28T03:50:20.072Z,0.20
2023-03-28T03:52:46.804Z,0.30
2023-03-28T03:55:15.444Z,0.30
2023-03-28T03:57:42.407Z,0.30
2023-03-28T04:00:12.275Z,0.30
2023-03-28T04:02:42.086Z,0.30
2023-03-28T04:05:09.310Z,0.40
2023-03-28T04:07:37.413Z,0.40
2023-03-28T04:10:04.823Z,0.40
2023-03-28T04:12:31.586Z,0.40
2023-03-28T04:14:58.538Z,0.40
2023-03-28T04:17:30.195Z,0.40
2023-03-28T04:19:57.335Z,0.40
2023-03-28T04:22:30.218Z,0.40
2023-03-28T04:24:57.161Z,0.40
2023-03-28T04:27:31.556Z,0.40
2023-03-28T04:30:01.524Z,0.40
2023-03-28T04:32:29.463Z,0.30
2023-03-28T04:34:56.077Z,0.30
2023-03-28T04:37:23.655Z,0.20
2023-03-28T04:39:54.443Z,0.20
2023-03-28T04:42:21.473Z,0.10
2023-03-28T04:44:52.486Z,0.10
2023-03-28T04:47:19.158Z,0.00
2023-03-28T04:49:46.191Z,0.00
2023-03-28T04:52:13.190Z,0.00
2023-03-28T04:54:39.971Z,-0.10
2023-03-28T04:57:06.884Z,-0.10
2023-03-28T04:59:34.508Z,-0.20
2023-03-28T05:02:01.162Z,-0.20
2023-03-28T05:04:27.958Z,-0.20
2023-03-28T05:06:54.635Z,-0.20
2023-03-28T05:09:23.969Z,-0.30
2023-03-28T05:11:51.025Z,-0.30
2023-03-28T05:14:17.708Z,-0.30
2023-03-28T05:16:44.592Z,-0.20
2023-03-28T05:19:11.738Z,-0.20
2023-03-28T05:21:38.551Z,-0.20
2023-03-28T05:24:05.300Z,-0.20
2023-03-28T05:26:33.541Z,-0.20
2023-03-28T05:29:00.384Z,-0.10
2023-03-28T05:31:28.696Z,-0.10
2023-03-28T05:33:55.819Z,-0.10
2023-03-28T05:36:23.328Z,0.00
2023-03-28T05:38:50.198Z,0.00
2023-03-28T05:41:19.844Z,0.00
2023-03-28T05:43:46.506Z,0.00
2023-03-28T05:46:13.232Z,0.10
2023-03-28T05:48:40.533Z,0.20
2023-03-28T05:51:07.405Z,0.30
2023-03-28T05:53:34.148Z,0.30
2023-03-28T05:56:00.888Z,0.40
2023-03-28T05:58:27.850Z,0.50
2023-03-28T06:00:57.917Z,0.60
2023-03-28T06:03:26.272Z,0.70
2023-03-28T06:05:54.057Z,0.80
2023-03-28T06:08:21.527Z,0.90
2023-03-28T06:10:49.551Z,1.00
2023-03-28T06:13:17.031Z,1.10
2023-03-28T06:15:43.726Z,1.20
2023-03-28T06:18:10.387Z,1.30
2023-03-28T06:20:37.017Z,1.30
2023-03-28T06:23:04.346Z,1.40
2023-03-28T06:25:31.014Z,1.50
2023-03-28T06:27:58.213Z,1.50
2023-03-28T06:30:24.852Z,1.60
2023-03-28T06:32:51.783Z,1.60
2023-03-28T06:35:18.503Z,1.60
2023-03-28T06:37:45.516Z,1.60
2023-03-28T06:40:12.435Z,1.70
2023-03-28T06:42:39.028Z,1.80
2023-03-28T06:45:05.939Z,1.80
2023-03-28T06:47:32.634Z,1.90
2023-03-28T06:49:59.289Z,1.90
2023-03-28T06:52:25.988Z,2.10
2023-03-28T06:54:52.934Z,2.20
2023-03-28T06:57:20.385Z,2.30
2023-03-28T06:59:47.225Z,2.50
2023-03-28T07:02:13.992Z,2.60
2023-03-28T07:04:40.920Z,2.70
2023-03-28T07:07:09.312Z,2.80
2023-03-28T07:09:38.327Z,3.00
2023-03-28T07:12:05.308Z,3.00
2023-03-28T07:14:31.935Z,3.20
2023-03-28T07:16:58.685Z,3.30
2023-03-28T07:19:25.494Z,3.40
2023-03-28T07:21:53.220Z,3.40
2023-03-28T07:24:21.170Z,3.60
2023-03-28T07:26:47.769Z,3.80
2023-03-28T07:29:14.456Z,4.00
2023-03-28T07:31:41.523Z,4.00
2023-03-28T07:34:08.898Z,4.10
2023-03-28T07:36:36.139Z,4.30
2023-03-28T07:39:03.226Z,4.50
2023-03-28T07:41:30.136Z,4.70
2023-03-28T07:43:58.038Z,4.80
2023-03-28T07:46:25.263Z,4.90
2023-03-28T07:48:52.300Z,4.80
2023-03-28T07:51:19.536Z,4.80
2023-03-28T07:53:47.007Z,5.00
2023-03-28T07:56:16.647Z,5.10
2023-03-28T07:58:43.355Z,5.10
2023-03-28T08:01:12.434Z,5.20
2023-03-28T08:03:40.105Z,5.20
2023-03-28T08:06:20.053Z,5.20
2023-03-28T08:08:52.622Z,5.30
2023-03-28T08:11:19.591Z,5.40
2023-03-28T08:13:46.864Z,5.30
2023-03-28T08:16:13.650Z,5.00
2023-03-28T08:18:41.017Z,5.00
2023-03-28T08:21:08.112Z,5.00
2023-03-28T08:23:34.717Z,5.20
2023-03-28T08:26:04.643Z,5.40
2023-03-28T08:28:32.736Z,5.40
2023-03-28T08:30:59.802Z,5.40
2023-03-28T08:33:28.924Z,5.60
2023-03-28T08:35:57.263Z,5.70
2023-03-28T08:38:24.567Z,5.80
2023-03-28T08:40:59.855Z,5.90
2023-03-28T08:43:47.065Z,6.00
2023-03-28T08:46:16.148Z,5.90
2023-03-28T08:48:47.444Z,5.80
2023-03-28T08:51:32.322Z,5.90
2023-03-28T08:54:17.961Z,5.90
2023-03-28T08:56:46.731Z,6.10
2023-03-28T08:59:16.156Z,6.30
2023-03-28T09:01:44.275Z,6.40
2023-03-28T09:04:26.166Z,6.50
2023-03-28T09:06:59.972Z,6.60
2023-03-28T09:09:29.845Z,6.70
2023-03-28T09:12:06.562Z,6.70
2023-03-28T09:14:45.427Z,7.00
2023-03-28T09:17:27.347Z,7.10
2023-03-28T09:22:42.039Z,7.60
2023-03-28T09:25:16.725Z,7.90
2023-03-28T09:27:52.005Z,8.10
2023-03-28T09:30:20.936Z,8.20
2023-03-28T09:32:49.689Z,8.10
2023-03-28T09:35:19.111Z,7.90
2023-03-28T09:37:49.322Z,7.70
2023-03-28T09:40:26.675Z,7.30
2023-03-28T09:42:57.249Z,7.10
2023-03-28T09:45:39.647Z,7.00
2023-03-28T09:48:12.100Z,7.00
2023-03-28T09:50:41.699Z,7.00
2023-03-28T09:53:15.518Z,7.20
2023-03-28T09:55:47.055Z,7.30
2023-03-28T09:58:21.489Z,7.40
2023-03-28T10:00:52.035Z,7.50
2023-03-28T10:03:23.193Z,7.60
2023-03-28T10:05:51.782Z,7.60
2023-03-28T10:08:27.700Z,7.60
2023-03-28T10:11:00.191Z,7.60
2023-03-28T10:13:27.739Z,7.90
2023-03-28T10:15:58.208Z,8.00
2023-03-28T10:18:27.276Z,8.20
2023-03-28T10:20:56.902Z,8.30
2023-03-28T10:26:18.718Z,8.30
2023-03-28T10:28:48.027Z,8.50
2023-03-28T10:31:21.533Z,8.40
2023-03-28T10:33:52.476Z,8.40
2023-03-28T10:36:38.020Z,8.30
2023-03-28T10:39:21.820Z,8.30
2023-03-28T10:41:59.088Z,8.50
2023-03-28T10:44:27.721Z,8.60
2023-03-28T10:46:55.658Z,8.60
2023-03-28T10:49:23.368Z,8.40
2023-03-28T10:51:50.692Z,8.30
2023-03-28T10:54:22.264Z,8.40
2023-03-28T10:57:01.876Z,8.40
2023-03-28T10:59:37.975Z,8.70
2023-03-28T11:02:04.838Z,9.00
2023-03-28T11:04:50.463Z,9.30
2023-03-28T11:07:23.825Z,9.60
2023-03-28T11:10:03.042Z,9.60
2023-03-28T11:12:40.938Z,9.60
2023-03-28T11:15:35.682Z,9.70
2023-03-28T11:18:05.747Z,9.80
2023-03-28T11:20:44.819Z,9.80
2023-03-28T11:23:38.072Z,9.80
2023-03-28T11:26:09.433Z,10.20
2023-03-28T11:28:46.768Z,10.20
2023-03-28T11:31:24.557Z,10.10
2023-03-28T11:34:00.807Z,10.20
2023-03-28T11:36:37.879Z,10.40
2023-03-28T11:39:34.597Z,10.40
2023-03-28T11:42:04.617Z,10.30
2023-03-28T11:44:33.948Z,10.30
2023-03-28T11:47:22.639Z,10.20
2023-03-28T11:50:08.451Z,10.10
2023-03-28T11:52:42.090Z,9.90
2023-03-28T11:55:21.523Z,10.00
2023-03-28T11:57:52.511Z,10.10
2023-03-28T12:00:33.815Z,10.40
2023-03-28T12:03:19.560Z,10.60
2023-03-28T12:06:04.814Z,10.30
2023-03-28T12:08:35.287Z,10.30
2023-03-28T12:11:06.274Z,10.30
2023-03-28T12:13:45.597Z,10.50
2023-03-28T12:16:20.689Z,10.70
2023-03-28T12:18:49.954Z,10.70
2023-03-28T12:21:19.919Z,10.60
2023-03-28T12:24:02.283Z,10.70
2023-03-28T12:26:36.574Z,10.70
2023-03-28T12:29:10.336Z,10.80
2023-03-28T12:31:41.544Z,11.00
2023-03-28T12:34:14.988Z,11.30
2023-03-28T12:37:03.153Z,11.30
2023-03-28T12:39:39.977Z,11.30
2023-03-28T12:42:09.505Z,11.50
2023-03-28T12:44:52.425Z,11.30
2023-03-28T12:47:39.866Z,11.10
2023-03-28T12:50:09.744Z,10.80
2023-03-28T12:52:38.311Z,10.60
2023-03-28T12:55:07.974Z,10.30
2023-03-28T12:57:40.563Z,10.00
2023-03-28T13:00:27.773Z,9.80
2023-03-28T13:03:21.049Z,9.80
2023-03-28T13:05:48.006Z,9.70
2023-03-28T13:08:24.405Z,9.70
2023-03-28T13:11:19.771Z,9.80
2023-03-28T13:14:06.800Z,9.90
2023-03-28T13:16:45.694Z,10.10
2023-03-28T13:19:17.133Z,10.10
2023-03-28T13:21:47.873Z,10.20
2023-03-28T13:24:29.255Z,10.30
2023-03-28T13:27:06.835Z,10.40
2023-03-28T13:29:43.527Z,10.40
2023-03-28T13:32:33.590Z,10.50
2023-03-28T13:35:06.688Z,10.60
2023-03-28T13:37:49.988Z,10.60
2023-03-28T13:40:35.620Z,10.60
2023-03-28T13:43:05.202Z,10.40
2023-03-28T13:45:32.498Z,10.30
2023-03-28T13:48:12.678Z,10.30
2023-03-28T13:50:40.755Z,10.10
2023-03-28T13:53:08.184Z,10.20
2023-03-28T13:55:35.150Z,10.30
2023-03-28T13:58:02.143Z,10.50
2023-03-28T14:00:30.961Z,10.70
2023-03-28T14:03:15.018Z,10.80
2023-03-28T14:05:43.494Z,10.80
2023-03-28T14:08:13.452Z,10.80
2023-03-28T14:10:41.941Z,10.80
2023-03-28T14:15:42.270Z,10.90
2023-03-28T14:18:28.606Z,10.90
2023-03-28T14:20:56.282Z,10.80
2023-03-28T14:23:30.495Z,10.70
2023-03-28T14:25:58.560Z,10.60
2023-03-28T14:28:28.204Z,10.40
2023-03-28T14:30:55.591Z,10.30
2023-03-28T14:33:22.855Z,10.30
2023-03-28T14:35:59.006Z,10.20
2023-03-28T14:38:36.593Z,10.20
2023-03-28T14:41:19.856Z,10.20
2023-03-28T14:43:51.733Z,10.10
2023-03-28T14:46:21.480Z,9.90
2023-03-28T14:48:54.154Z,9.90
2023-03-28T14:51:22.620Z,9.90
2023-03-28T14:53:50.186Z,9.90
2023-03-28T14:56:22.154Z,10.00
2023-03-28T14:58:50.526Z,9.90
2023-03-28T15:01:24.754Z,9.80
2023-03-28T15:03:59.092Z,9.80
2023-03-28T15:06:26.179Z,9.70
2023-03-28T15:08:55.779Z,9.70
2023-03-28T15:11:29.777Z,9.70
2023-03-28T15:13:59.484Z,9.70
2023-03-28T15:16:26.843Z,9.60
2023-03-28T15:18:57.715Z,9.70
2023-03-28T15:21:24.666Z,9.80
2023-03-28T15:23:55.900Z,9.70
2023-03-28T15:26:26.613Z,9.70
2023-03-28T15:28:54.186Z,9.60
2023-03-28T15:31:21.763Z,9.70
2023-03-28T15:33:50.539Z,9.50
2023-03-28T15:36:19.297Z,9.60
2023-03-28T15:38:49.258Z,9.60
2023-03-28T15:41:24.363Z,9.40
2023-03-28T15:43:54.333Z,9.30
2023-03-28T15:46:28.501Z,9.20
2023-03-28T15:48:59.695Z,9.10
2023-03-28T15:51:26.868Z,9.00
2023-03-28T15:53:54.890Z,8.90
2023-03-28T15:56:22.706Z,8.80
2023-03-28T15:58:50.895Z,8.70
2023-03-28T16:01:31.554Z,8.70
2023-03-28T16:04:20.239Z,8.60
2023-03-28T16:06:58.215Z,8.60
2023-03-28T16:09:25.467Z,8.50
2023-03-28T16:12:03.298Z,8.40
2023-03-28T16:14:31.549Z,8.40
2023-03-28T16:16:59.028Z,8.30
2023-03-28T16:19:27.270Z,8.10
2023-03-28T16:21:54.134Z,8.00
2023-03-28T16:24:26.461Z,8.00
2023-03-28T16:26:53.362Z,7.90
2023-03-28T16:29:23.133Z,7.90
2023-03-28T16:31:50.163Z,7.90
2023-03-28T16:34:18.407Z,7.80
2023-03-28T16:36:46.589Z,7.80
2023-03-28T16:39:13.746Z,7.80
2023-03-28T16:41:40.523Z,7.70
2023-03-28T16:44:07.153Z,7.70
2023-03-28T16:46:37.398Z,7.60
2023-03-28T16:49:04.331Z,7.60
2023-03-28T16:51:31.330Z,7.50
2023-03-28T16:53:58.337Z,7.50
2023-03-28T16:56:28.309Z,7.40
2023-03-28T16:58:56.339Z,7.30
2023-03-28T17:01:23.723Z,7.30
2023-03-28T17:03:52.927Z,7.20
2023-03-28T17:06:24.500Z,7.10
2023-03-28T17:08:56.821Z,7.00
2023-03-28T17:11:23.576Z,7.00
2023-03-28T17:13:51.572Z,6.80
2023-03-28T17:16:18.359Z,6.80
2023-03-28T17:18:45.410Z,6.70
2023-03-28T17:21:15.254Z,6.60
2023-03-28T17:23:44.240Z,6.50
2023-03-28T17:26:19.231Z,6.30
2023-03-28T17:28:49.290Z,6.30
2023-03-28T17:31:17.903Z,6.10
2023-03-28T17:33:46.176Z,6.10
2023-03-28T17:36:21.056Z,5.90
2023-03-28T17:38:50.018Z,5.80
2023-03-28T17:41:19.785Z,5.70
2023-03-28T17:43:48.168Z,5.60
2023-03-28T17:46:14.886Z,5.50
2023-03-28T17:48:42.066Z,5.40
2023-03-28T17:51:11.077Z,5.30
2023-03-28T17:53:43.196Z,5.30
2023-03-28T17:56:11.160Z,5.20
2023-03-28T17:58:38.336Z,5.10
2023-03-28T18:01:13.987Z,5.00
2023-03-28T18:03:42.277Z,4.90
2023-03-28T18:06:09.409Z,4.80
2023-03-28T18:08:37.785Z,4.70
2023-03-28T18:11:07.916Z,4.60
2023-03-28T18:13:36.086Z,4.50
2023-03-28T18:16:06.198Z,4.40
2023-03-28T18:18:36.140Z,4.30
2023-03-28T18:21:08.653Z,4.30
2023-03-28T18:23:36.040Z,4.30
2023-03-28T18:26:03.393Z,4.20
2023-03-28T18:28:30.494Z,4.20
2023-03-28T18:31:05.726Z,4.10
2023-03-28T18:33:32.580Z,4.10
2023-03-28T18:35:59.722Z,4.10
2023-03-28T18:38:26.646Z,4.00
2023-03-28T18:40:53.764Z,3.90
2023-03-28T18:43:21.954Z,3.90
2023-03-28T18:45:54.022Z,3.80
2023-03-28T18:48:21.649Z,3.70
2023-03-28T18:50:48.521Z,3.70
2023-03-28T18:53:15.365Z,3.60
2023-03-28T18:55:42.578Z,3.50
2023-03-28T18:58:11.734Z,3.40
2023-03-28T19:00:39.277Z,3.30
2023-03-28T19:03:09.417Z,3.20
2023-03-28T19:05:37.892Z,3.20
2023-03-28T19:08:04.977Z,3.00
2023-03-28T19:10:34.627Z,3.00
2023-03-28T19:13:01.781Z,2.90
2023-03-28T19:15:31.110Z,2.80
2023-03-28T19:18:00.928Z,2.80
2023-03-28T19:20:32.020Z,2.70
2023-03-28T19:22:58.714Z,2.60
2023-03-28T19:25:26.088Z,2.50
2023-03-28T19:27:55.190Z,2.40
2023-03-28T19:30:23.380Z,2.30
2023-03-28T19:32:50.186Z,2.30
2023-03-28T19:35:16.943Z,2.20
2023-03-28T19:37:43.683Z,2.10
2023-03-28T19:40:10.952Z,2.00
2023-03-28T19:42:40.582Z,1.90
2023-03-28T19:45:08.990Z,1.90
2023-03-28T19:47:36.135Z,1.80
2023-03-28T19:50:04.331Z,1.70
2023-03-28T19:52:32.456Z,1.60
2023-03-28T19:54:59.184Z,1.60
2023-03-28T19:57:26.069Z,1.50
2023-03-28T19:59:53.473Z,1.40
2023-03-28T20:02:20.643Z,1.40
2023-03-28T20:04:47.570Z,1.40
2023-03-28T20:07:14.815Z,1.30
2023-03-28T20:09:45.780Z,1.30
2023-03-28T20:12:12.861Z,1.30
2023-03-28T20:14:41.651Z,1.30
2023-03-28T20:17:09.089Z,1.20
2023-03-28T20:19:36.291Z,1.20
2023-03-28T20:22:04.435Z,1.20
2023-03-28T20:24:32.476Z,1.20
2023-03-28T20:26:59.506Z,1.20
2023-03-28T20:29:29.619Z,1.20
2023-03-28T20:31:56.766Z,1.20
2023-03-28T20:34:23.587Z,1.20
2023-03-28T20:36:50.466Z,1.20
2023-03-28T20:39:17.555Z,1.20
2023-03-28T20:41:45.654Z,1.10
2023-03-28T20:44:19.979Z,1.10
2023-03-28T20:46:48.865Z,1.10
2023-03-28T20:49:18.058Z,1.10
2023-03-28T20:51:45.154Z,1.10
2023-03-28T20:54:11.936Z,1.10
2023-03-28T20:56:41.336Z,1.10
2023-03-28T20:59:08.301Z,1.10
2023-03-28T21:01:39.754Z,1.10
2023-03-28T21:04:07.560Z,1.20
2023-03-28T21:06:37.729Z,1.20
2023-03-28T21:09:06.967Z,1.30
2023-03-28T21:11:35.168Z,1.30
2023-03-28T21:14:02.146Z,1.30
2023-03-28T21:16:30.137Z,1.30
2023-03-28T21:18:56.846Z,1.30
2023-03-28T21:21:24.007Z,1.40
2023-03-28T21:23:53.150Z,1.40
2023-03-28T21:26:21.433Z,1.30
2023-03-28T21:28:48.991Z,1.30
2023-03-28T21:31:17.140Z,1.30
2023-03-28T21:33:43.942Z,1.30
2023-03-28T21:36:12.110Z,1.30
2023-03-28T21:38:39.271Z,1.30
2023-03-28T21:41:06.498Z,1.30
2023-03-28T21:43:35.631Z,1.20
2023-03-28T21:46:02.968Z,1.30
2023-03-28T21:48:30.275Z,1.20
2023-03-28T21:50:59.288Z,1.20
2023-03-28T21:53:28.692Z,1.20
2023-03-28T21:55:58.680Z,1.20
2023-03-28T21:58:26.359Z,1.20
2023-03-28T22:00:54.091Z,1.20
2023-03-28T22:03:20.985Z,1.20
2023-03-28T22:05:50.520Z,1.20
2023-03-28T22:08:17.377Z,1.20
2023-03-28T22:10:46.578Z,1.20
2023-03-28T22:13:13.950Z,1.20
2023-03-28T22:15:40.947Z,1.20
2023-03-28T22:18:09.233Z,1.30
2023-03-28T22:20:36.868Z,1.20
2023-03-28T22:23:04.607Z,1.20
2023-03-28T22:25:38.441Z,1.30
2023-03-28T22:28:09.554Z,1.30
2023-03-28T22:30:39.834Z,1.30
2023-03-28T22:33:07.453Z,1.30
2023-03-28T22:35:34.251Z,1.30
2023-03-28T22:38:01.422Z,1.30
2023-03-28T22:40:28.682Z,1.30
2023-03-28T22:42:58.670Z,1.30
2023-03-28T22:45:29.273Z,1.30
2023-03-28T22:48:00.041Z,1.30
2023-03-28T22:50:28.548Z,1.30
2023-03-28T22:52:55.636Z,1.30
2023-03-28T22:55:23.768Z,1.30
2023-03-28T22:57:54.080Z,1.30
2023-03-28T23:00:26.776Z,1.30
2023-03-28T23:02:54.924Z,1.30
2023-03-28T23:05:21.797Z,1.30
2023-03-28T23:07:49.017Z,1.40
2023-03-28T23:10:17.736Z,1.30
2023-03-28T23:12:44.973Z,1.30
2023-03-28T23:15:13.775Z,1.30
2023-03-28T23:17:40.510Z,1.40
2023-03-28T23:20:15.075Z,1.40
2023-03-28T23:22:42.964Z,1.40
2023-03-28T23:25:11.455Z,1.40
2023-03-28T23:27:38.415Z,1.40
2023-03-28T23:30:06.414Z,1.40
2023-03-28T23:32:33.523Z,1.40
2023-03-28T23:35:00.522Z,1.40
2023-03-28T23:37:27.461Z,1.40
2023-03-28T23:39:55.488Z,1.40
2023-03-28T23:42:22.663Z,1.40
2023-03-28T23:44:50.493Z,1.40
2023-03-28T23:47:18.315Z,1.40
2023-03-28T23:49:44.949Z,1.40
2023-03-28T23:52:13.547Z,1.40
2023-03-28T23:54:40.305Z,1.40
2023-03-28T23:57:08.080Z,1.40
2023-03-28T23:59:35.399Z,1.40
